Map

Track Data

SID SEASON NUMBER BASIN SUBBASIN NAME ISO_TIME NATURE LAT LON WMO_WIND WMO_PRES WMO_AGENCY TRACK_TYPE DIST2LAND LANDFALL IFLAG USA_AGENCY USA_ATCF_ID USA_LAT USA_LON USA_RECORD USA_STATUS USA_WIND USA_PRES USA_SSHS USA_R34_NE USA_R34_SE USA_R34_SW USA_R34_NW USA_R50_NE USA_R50_SE USA_R50_SW USA_R50_NW USA_R64_NE USA_R64_SE USA_R64_SW USA_R64_NW USA_POCI USA_ROCI USA_RMW USA_EYE TOKYO_LAT TOKYO_LON TOKYO_GRADE TOKYO_WIND TOKYO_PRES TOKYO_R50_DIR TOKYO_R50_LONG TOKYO_R50_SHORT TOKYO_R30_DIR TOKYO_R30_LONG TOKYO_R30_SHORT TOKYO_LAND CMA_LAT CMA_LON CMA_CAT CMA_WIND CMA_PRES HKO_LAT HKO_LON HKO_CAT HKO_WIND HKO_PRES NEWDELHI_LAT NEWDELHI_LON NEWDELHI_GRADE NEWDELHI_WIND NEWDELHI_PRES NEWDELHI_CI NEWDELHI_DP NEWDELHI_POCI REUNION_LAT REUNION_LON REUNION_TYPE REUNION_WIND REUNION_PRES REUNION_TNUM REUNION_CI REUNION_RMW REUNION_R34_NE REUNION_R34_SE REUNION_R34_SW REUNION_R34_NW REUNION_R50_NE REUNION_R50_SE REUNION_R50_SW REUNION_R50_NW REUNION_R64_NE REUNION_R64_SE REUNION_R64_SW REUNION_R64_NW BOM_LAT BOM_LON BOM_TYPE BOM_WIND BOM_PRES BOM_TNUM BOM_CI BOM_RMW BOM_R34_NE BOM_R34_SE BOM_R34_SW BOM_R34_NW BOM_R50_NE BOM_R50_SE BOM_R50_SW BOM_R50_NW BOM_R64_NE BOM_R64_SE BOM_R64_SW BOM_R64_NW BOM_ROCI BOM_POCI BOM_EYE BOM_POS_METHOD BOM_PRES_METHOD NADI_LAT NADI_LON NADI_CAT NADI_WIND NADI_PRES WELLINGTON_LAT WELLINGTON_LON WELLINGTON_WIND WELLINGTON_PRES DS824_LAT DS824_LON DS824_STAGE DS824_WIND DS824_PRES TD9636_LAT TD9636_LON TD9636_STAGE TD9636_WIND TD9636_PRES TD9635_LAT TD9635_LON TD9635_WIND TD9635_PRES TD9635_ROCI NEUMANN_LAT NEUMANN_LON NEUMANN_CLASS NEUMANN_WIND NEUMANN_PRES MLC_LAT MLC_LON MLC_CLASS MLC_WIND MLC_PRES USA_GUST BOM_GUST BOM_GUST_PER REUNION_GUST REUNION_GUST_PER USA_SEAHGT USA_SEARAD_NE USA_SEARAD_SE USA_SEARAD_SW USA_SEARAD_NW STORM_SPEED STORM_DIR
1990202N14110 1990 51 WP MM NOT_NAMED 1990-07-20 12:00:00 TS 14.0000 110.000 main 76 76 __O___________ -1 14.0000 110.000 1 23 1002 8 98
1990202N14110 1990 51 WP MM NOT_NAMED 1990-07-20 15:00:00 TS 13.9452 110.413 main 118 118 __P___________ -1 13.9452 110.413 1 23 1002 8 90
1990202N14110 1990 51 WP MM NOT_NAMED 1990-07-20 18:00:00 TS 14.0000 110.800 main 162 162 __O___________ -1 14.0000 110.800 1 23 1002 8 68
1990202N14110 1990 51 WP MM NOT_NAMED 1990-07-20 21:00:00 TS 14.2274 111.150 main 197 197 __P___________ -1 14.2274 111.150 1 23 1002 8 54
1990202N14110 1990 51 WP MM NOT_NAMED 1990-07-21 00:00:00 TS 14.5000 111.500 main 246 246 __O___________ -1 14.5000 111.500 1 23 1002 8 61
1990202N14110 1990 51 WP MM NOT_NAMED 1990-07-21 03:00:00 TS 14.6350 111.900 main 291 291 __P___________ -1 14.6350 111.900 1 26 1001 8 69
1990202N14110 1990 51 WP MM NOT_NAMED 1990-07-21 06:00:00 TS 14.8000 112.300 main 338 338 __O___________ -1 14.8000 112.300 1 29 1000 10 61
1990202N14110 1990 51 WP MM NOT_NAMED 1990-07-21 09:00:00 TS 15.1348 112.822 main 400 400 __P___________ -1 15.1348 112.822 1 29 1000 10 44
1990202N14110 1990 51 WP MM NOT_NAMED 1990-07-21 12:00:00 TS 15.5000 113.000 main 428 385 __O___________ -1 15.5000 113.000 1 29 1000 8 330
1990202N14110 1990 51 WP MM NOT_NAMED 1990-07-21 15:00:00 TS 15.8030 112.416 main 374 292 __P___________ -1 15.8030 112.416 1 29 1000 15 289
1990202N14110 1990 51 WP MM NOT_NAMED 1990-07-21 18:00:00 TS 16.0000 111.500 main 292 222 __O___________ -1 16.0000 111.500 1 29 1000 16 277
1990202N14110 1990 51 WP MM NOT_NAMED 1990-07-21 21:00:00 TS 15.9997 110.749 main 212 148 __P___________ -1 15.9997 110.749 1 29 1000 14 270
1990202N14110 1990 51 WP MM NOT_NAMED 1990-07-22 00:00:00 TS 16.0000 110.000 main 148 100 __O___________ -1 16.0000 110.000 1 29 1000 15 277
1990202N14110 1990 51 WP MM NOT_NAMED 1990-07-22 03:00:00 TS 16.1747 109.250 main 96 54 __P___________ -1 16.1747 109.250 1 29 1000 15 289
1990202N14110 1990 51 WP MM NOT_NAMED 1990-07-22 06:00:00 TS 16.5000 108.500 main 54 35 __O___________ -1 16.5000 108.500 1 29 1000 17 298
1990202N14110 1990 51 WP MM NOT_NAMED 1990-07-22 09:00:00 TS 16.9629 107.676 main 46 24 __P___________ -1 16.9629 107.676 1 26 1001 18 305
1990202N14110 1990 51 WP MM NOT_NAMED 1990-07-22 12:00:00 TS 17.5000 107.000 main 30 21 __O___________ -1 17.5000 107.000 1 23 1002 14 318
1990202N14110 1990 51 WP MM NOT_NAMED 1990-07-22 15:00:00 TS 17.9993 106.711 main 23 23 __P___________ -1 17.9993 106.711 1 23 1002 11 335
1990202N14110 1990 51 WP MM NOT_NAMED 1990-07-22 18:00:00 TS 18.5000 106.500 main 39 39 __O___________ -1 18.5000 106.500 1 23 1002 12 328
1990202N14110 1990 51 WP MM NOT_NAMED 1990-07-22 21:00:00 TS 19.0376 106.038 main 33 0 __P___________ -1 19.0376 106.038 1 23 1002 14 317
1990202N14110 1990 51 WP MM NOT_NAMED 1990-07-23 00:00:00 TS 19.5000 105.500 main 0 0 __O___________ -1 19.5000 105.500 1 23 1002 12 310
1990202N14110 1990 51 WP MM NOT_NAMED 1990-07-23 03:00:00 TS 19.8245 105.037 main 0 0 __P___________ -1 19.8245 105.037 1 23 1002 11 298
1990202N14110 1990 51 WP MM NOT_NAMED 1990-07-23 06:00:00 TS 20.0000 104.500 main 0 0 __O___________ -1 20.0000 104.500 1 23 1002 12 280
1990202N14110 1990 51 WP MM NOT_NAMED 1990-07-23 09:00:00 TS 20.0380 103.750 main 0 0 __P___________ -1 20.0380 103.750 1 23 1002 14 270
1990202N14110 1990 51 WP MM NOT_NAMED 1990-07-23 12:00:00 TS 20.0000 103.000 main 0 0 __O___________ -1 20.0000 103.000 1 23 1002 12 268
1990202N14110 1990 51 WP MM NOT_NAMED 1990-07-23 15:00:00 TS 19.9872 102.438 main 0 0 __P___________ -1 19.9872 102.438 1 21 1003 9 270
1990202N14110 1990 51 WP MM NOT_NAMED 1990-07-23 18:00:00 TS 20.0000 102.000 main 0 __O___________ -1 20.0000 102.000 0 19 1004 8 272

Digital Typhoon Data and Search

About IBTrACS Database

This database is a web-friendly format of International Best Track Archive for Climate Stewardship (IBTrACS), a global best track data archive curated by NOAA dating back to 1842.

Updated: 2021-10-08